createdAt,value
2022-09-18T00:01:02.016Z,99516.50
2022-09-18T00:03:28.698Z,99519.16
2022-09-18T00:05:55.062Z,99522.38
2022-09-18T00:08:21.532Z,99524.75
2022-09-18T00:10:47.982Z,99527.72
2022-09-18T00:13:15.028Z,99526.09
2022-09-18T00:15:41.862Z,99523.63
2022-09-18T00:18:08.985Z,99525.06
2022-09-18T00:20:36.915Z,99530.06
2022-09-18T00:23:04.041Z,99519.88
2022-09-18T00:25:32.071Z,99514.72
2022-09-18T00:27:58.523Z,99517.78
2022-09-18T00:30:24.940Z,99517.19
2022-09-18T00:32:51.287Z,99512.91
2022-09-18T00:35:17.722Z,99520.75
2022-09-18T00:37:44.143Z,99517.69
2022-09-18T00:40:10.957Z,99507.19
2022-09-18T00:42:37.474Z,99512.94
2022-09-18T00:45:04.411Z,99520.34
2022-09-18T00:47:52.276Z,99519.22
2022-09-18T00:50:24.442Z,99524.34
2022-09-18T00:52:56.782Z,99515.81
2022-09-18T00:55:28.725Z,99513.56
2022-09-18T00:57:57.664Z,99518.34
2022-09-18T01:00:24.637Z,99524.66
2022-09-18T01:02:51.256Z,99506.91
2022-09-18T01:06:06.312Z,99516.00
2022-09-18T01:08:56.553Z,99518.84
2022-09-18T01:11:36.908Z,99518.78
2022-09-18T01:14:23.485Z,99508.47
2022-09-18T01:17:01.781Z,99515.34
2022-09-18T01:19:46.414Z,99518.41
2022-09-18T01:22:44.926Z,99517.53
2022-09-18T01:25:38.544Z,99518.41
2022-09-18T01:28:13.893Z,99513.13
2022-09-18T01:30:44.706Z,99509.63
2022-09-18T01:33:19.627Z,99516.41
2022-09-18T01:35:52.756Z,99512.13
2022-09-18T01:38:26.840Z,99505.41
2022-09-18T01:40:58.829Z,99498.84
2022-09-18T01:43:28.628Z,99507.91
2022-09-18T01:45:58.473Z,99505.25
2022-09-18T01:48:36.912Z,99502.91
2022-09-18T01:51:20.467Z,99499.50
2022-09-18T01:53:52.865Z,99503.47
2022-09-18T01:56:28.060Z,99493.03
2022-09-18T01:58:58.948Z,99499.31
2022-09-18T02:01:37.878Z,99512.03
2022-09-18T02:04:09.989Z,99503.66
2022-09-18T02:06:44.416Z,99494.75
2022-09-18T02:09:12.835Z,99499.88
2022-09-18T02:11:44.887Z,99507.25
2022-09-18T02:14:19.510Z,99510.50
2022-09-18T02:17:37.776Z,99510.25
2022-09-18T02:20:13.725Z,99512.25
2022-09-18T02:22:45.349Z,99514.59
2022-09-18T02:25:15.132Z,99507.34
2022-09-18T02:27:43.450Z,99500.63
2022-09-18T02:30:10.895Z,99506.13
2022-09-18T02:32:39.124Z,99507.78
2022-09-18T02:35:08.673Z,99501.91
2022-09-18T02:37:42.532Z,99500.13
2022-09-18T02:40:19.117Z,99506.22
2022-09-18T02:42:51.138Z,99504.44
2022-09-18T02:45:35.923Z,99504.97
2022-09-18T02:48:24.991Z,99496.09
2022-09-18T02:51:03.884Z,99493.59
2022-09-18T02:53:51.897Z,99492.03
2022-09-18T02:56:39.197Z,99483.34
2022-09-18T02:59:13.021Z,99487.38
2022-09-18T03:01:43.800Z,99483.72
2022-09-18T03:04:14.309Z,99482.78
2022-09-18T03:06:56.219Z,99489.63
2022-09-18T03:09:24.128Z,99493.78
2022-09-18T03:11:50.845Z,99488.72
2022-09-18T03:14:18.848Z,99485.53
2022-09-18T03:16:45.188Z,99487.53
2022-09-18T03:19:14.201Z,99493.78
2022-09-18T03:21:42.358Z,99484.44
2022-09-18T03:24:10.826Z,99493.13
2022-09-18T03:26:40.800Z,99490.50
2022-09-18T03:29:09.006Z,99491.28
2022-09-18T03:31:35.837Z,99482.34
2022-09-18T03:34:04.081Z,99499.66
2022-09-18T03:36:30.488Z,99485.84
2022-09-18T03:38:57.999Z,99486.97
2022-09-18T03:41:24.853Z,99491.59
2022-09-18T03:43:51.992Z,99488.66
2022-09-18T03:46:23.325Z,99490.44
2022-09-18T03:48:53.185Z,99489.47
2022-09-18T03:51:21.665Z,99489.56
2022-09-18T03:53:48.993Z,99484.03
2022-09-18T03:56:37.131Z,99492.56
2022-09-18T03:59:25.400Z,99490.13
2022-09-18T04:02:00.651Z,99476.50
2022-09-18T04:04:27.622Z,99480.09
2022-09-18T04:07:12.556Z,99482.91
2022-09-18T04:09:41.553Z,99488.03
2022-09-18T04:12:08.645Z,99488.34
2022-09-18T04:14:35.481Z,99493.34
2022-09-18T04:17:01.937Z,99485.69
2022-09-18T04:19:29.739Z,99491.00
2022-09-18T04:21:57.337Z,99494.72
2022-09-18T04:24:23.795Z,99490.38
2022-09-18T04:26:50.169Z,99500.47
2022-09-18T04:29:19.745Z,99493.22
2022-09-18T04:31:50.029Z,99481.13
2022-09-18T04:34:17.552Z,99491.94
2022-09-18T04:36:44.085Z,99472.75
2022-09-18T04:39:10.584Z,99465.88
2022-09-18T04:41:37.043Z,99474.81
2022-09-18T04:44:04.892Z,99481.84
2022-09-18T04:46:31.420Z,99476.28
2022-09-18T04:48:59.621Z,99485.16
2022-09-18T04:51:27.698Z,99484.56
2022-09-18T04:53:54.204Z,99487.69
2022-09-18T04:56:22.274Z,99468.78
2022-09-18T04:58:51.112Z,99482.53
2022-09-18T05:01:17.822Z,99486.59
2022-09-18T05:03:44.368Z,99482.28
2022-09-18T05:06:18.001Z,99473.53
2022-09-18T05:08:45.310Z,99472.00
2022-09-18T05:11:11.741Z,99478.91
2022-09-18T05:13:40.025Z,99481.31
2022-09-18T05:16:13.487Z,99484.66
2022-09-18T05:18:41.755Z,99489.56
2022-09-18T05:21:08.140Z,99491.06
2022-09-18T05:23:34.686Z,99490.22
2022-09-18T05:26:02.290Z,99491.91
2022-09-18T05:28:28.677Z,99495.44
2022-09-18T05:31:00.664Z,99486.13
2022-09-18T05:33:33.373Z,99490.69
2022-09-18T05:36:00.131Z,99494.00
2022-09-18T05:38:26.888Z,99491.34
2022-09-18T05:40:53.799Z,99486.50
2022-09-18T05:43:20.163Z,99493.34
2022-09-18T05:45:48.878Z,99492.06
2022-09-18T05:48:20.702Z,99499.50
2022-09-18T05:50:48.307Z,99492.97
2022-09-18T05:53:21.365Z,99495.34
2022-09-18T05:56:23.260Z,99496.84
2022-09-18T05:58:49.710Z,99505.94
2022-09-18T06:01:16.855Z,99492.69
2022-09-18T06:04:21.443Z,99494.78
2022-09-18T06:07:05.281Z,99499.75
2022-09-18T06:09:31.937Z,99503.44
2022-09-18T06:11:59.224Z,99500.63
2022-09-18T06:14:25.707Z,99494.81
2022-09-18T06:16:52.118Z,99501.34
2022-09-18T06:19:18.536Z,99499.66
2022-09-18T06:21:47.526Z,99509.03
2022-09-18T06:24:16.816Z,99515.75
2022-09-18T06:26:49.721Z,99512.66
2022-09-18T06:29:16.089Z,99512.81
2022-09-18T06:31:49.919Z,99517.28
2022-09-18T06:34:21.969Z,99510.72
2022-09-18T06:36:48.777Z,99514.19
2022-09-18T06:39:24.649Z,99513.47
2022-09-18T06:41:55.424Z,99516.72
2022-09-18T06:44:42.316Z,99508.16
2022-09-18T06:47:08.868Z,99514.84
2022-09-18T06:49:40.439Z,99511.69
2022-09-18T06:52:06.912Z,99523.09
2022-09-18T06:54:35.749Z,99511.84
2022-09-18T06:57:02.463Z,99522.56
2022-09-18T06:59:30.823Z,99515.03
2022-09-18T07:01:57.567Z,99513.75
2022-09-18T07:04:47.449Z,99525.63
2022-09-18T07:07:16.309Z,99519.47
2022-09-18T07:09:45.774Z,99524.34
2022-09-18T07:12:23.584Z,99517.38
2022-09-18T07:14:53.822Z,99525.63
2022-09-18T07:17:25.662Z,99527.03
2022-09-18T07:19:53.710Z,99531.34
2022-09-18T07:22:24.008Z,99530.38
2022-09-18T07:24:50.742Z,99523.41
2022-09-18T07:27:17.175Z,99520.22
2022-09-18T07:29:43.845Z,99523.84
2022-09-18T07:32:13.763Z,99517.84
2022-09-18T07:34:43.652Z,99523.72
2022-09-18T07:37:12.453Z,99522.22
2022-09-18T07:39:41.157Z,99526.28
2022-09-18T07:42:30.374Z,99528.09
2022-09-18T07:44:56.716Z,99521.81
2022-09-18T07:47:25.195Z,99524.59
2022-09-18T07:49:52.289Z,99520.56
2022-09-18T07:52:19.204Z,99517.06
2022-09-18T07:54:50.883Z,99508.72
2022-09-18T07:57:32.657Z,99513.91
2022-09-18T08:00:33.198Z,99508.25
2022-09-18T08:03:11.806Z,99513.00
2022-09-18T08:05:57.558Z,99518.59
2022-09-18T08:08:24.376Z,99512.47
2022-09-18T08:11:29.072Z,99508.56
2022-09-18T08:14:03.412Z,99515.84
2022-09-18T08:16:44.452Z,99516.66
2022-09-18T08:19:33.734Z,99509.69
2022-09-18T08:22:08.053Z,99506.06
2022-09-18T08:24:37.401Z,99515.66
2022-09-18T08:27:04.420Z,99515.13
2022-09-18T08:29:32.112Z,99511.09
2022-09-18T08:32:06.523Z,99522.06
2022-09-18T08:34:36.225Z,99524.44
2022-09-18T08:37:02.666Z,99523.88
2022-09-18T08:39:52.201Z,99513.13
2022-09-18T08:42:58.103Z,99517.06
2022-09-18T08:46:00.595Z,99510.50
2022-09-18T08:48:56.529Z,99510.50
2022-09-18T08:51:30.680Z,99511.88
2022-09-18T08:54:15.203Z,99517.16
2022-09-18T08:57:03.547Z,99513.84
2022-09-18T08:59:46.109Z,99520.38
2022-09-18T09:02:42.619Z,99518.56
2022-09-18T09:05:16.692Z,99514.91
2022-09-18T09:08:09.876Z,99514.53
2022-09-18T09:10:55.873Z,99512.97
2022-09-18T09:13:50.256Z,99515.03
2022-09-18T09:16:28.490Z,99512.63
2022-09-18T09:19:00.135Z,99517.28
2022-09-18T09:21:54.869Z,99519.53
2022-09-18T09:24:34.421Z,99524.97
2022-09-18T09:27:18.132Z,99527.38
2022-09-18T09:30:19.859Z,99514.81
2022-09-18T09:33:23.268Z,99522.34
2022-09-18T09:36:24.075Z,99523.88
2022-09-18T09:39:08.367Z,99529.19
2022-09-18T09:41:40.304Z,99528.22
2022-09-18T09:44:18.806Z,99525.28
2022-09-18T09:47:05.203Z,99522.75
2022-09-18T09:49:55.942Z,99514.25
2022-09-18T09:52:25.150Z,99512.44
2022-09-18T09:54:55.396Z,99520.13
2022-09-18T09:57:48.977Z,99520.81
2022-09-18T10:00:18.262Z,99517.34
2022-09-18T10:02:58.369Z,99523.63
2022-09-18T10:05:58.099Z,99528.91
2022-09-18T10:08:46.915Z,99532.84
2022-09-18T10:11:15.822Z,99529.75
2022-09-18T10:13:53.579Z,99514.03
2022-09-18T10:16:29.471Z,99497.25
2022-09-18T10:19:00.072Z,99499.66
2022-09-18T10:21:37.029Z,99491.81
2022-09-18T10:24:29.897Z,99493.22
2022-09-18T10:27:09.558Z,99488.72
2022-09-18T10:29:36.289Z,99498.53
2022-09-18T10:32:06.758Z,99498.81
2022-09-18T10:34:49.419Z,99503.25
2022-09-18T10:37:28.429Z,99493.50
2022-09-18T10:40:01.336Z,99498.22
2022-09-18T10:42:33.879Z,99490.13
2022-09-18T10:45:37.930Z,99485.66
2022-09-18T10:48:24.140Z,99476.00
2022-09-18T10:50:56.295Z,99485.22
2022-09-18T10:53:32.767Z,99489.44
2022-09-18T10:56:20.016Z,99498.78
2022-09-18T10:58:47.973Z,99484.28
2022-09-18T11:01:15.172Z,99493.50
2022-09-18T11:04:06.521Z,99500.03
2022-09-18T11:06:37.116Z,99488.72
2022-09-18T11:09:18.425Z,99482.88
2022-09-18T11:11:51.212Z,99478.41
2022-09-18T11:14:26.047Z,99490.56
2022-09-18T11:17:02.195Z,99480.94
2022-09-18T11:19:40.598Z,99485.41
2022-09-18T11:22:44.188Z,99482.19
2022-09-18T11:25:29.361Z,99471.69
2022-09-18T11:28:01.870Z,99471.25
2022-09-18T11:30:36.131Z,99458.81
2022-09-18T11:33:26.190Z,99455.84
2022-09-18T11:36:07.747Z,99449.84
2022-09-18T11:38:45.901Z,99452.31
2022-09-18T11:41:23.069Z,99467.69
2022-09-18T11:44:04.585Z,99472.28
2022-09-18T11:47:10.882Z,99467.25
2022-09-18T11:49:43.392Z,99457.06
2022-09-18T11:52:27.743Z,99457.66
2022-09-18T11:55:16.923Z,99468.56
2022-09-18T11:57:48.648Z,99468.84
2022-09-18T12:00:23.077Z,99469.97
2022-09-18T12:03:04.761Z,99472.63
2022-09-18T12:05:38.688Z,99478.59
2022-09-18T12:08:21.739Z,99474.13
2022-09-18T12:11:28.152Z,99471.34
2022-09-18T12:14:20.563Z,99468.97
2022-09-18T12:17:32.328Z,99451.06
2022-09-18T12:20:18.396Z,99453.97
2022-09-18T12:22:52.234Z,99450.22
2022-09-18T12:25:32.293Z,99454.69
2022-09-18T12:28:39.840Z,99460.53
2022-09-18T12:31:13.312Z,99451.47
2022-09-18T12:34:30.064Z,99451.03
2022-09-18T12:37:16.261Z,99463.19
2022-09-18T12:39:59.769Z,99452.56
2022-09-18T12:42:28.911Z,99454.69
2022-09-18T12:45:20.459Z,99453.16
2022-09-18T12:48:18.657Z,99448.13
2022-09-18T12:51:03.590Z,99440.06
2022-09-18T12:53:48.842Z,99449.72
2022-09-18T12:56:38.334Z,99435.13
2022-09-18T12:59:20.072Z,99434.50
2022-09-18T13:02:12.772Z,99435.84
2022-09-18T13:04:46.571Z,99430.81
2022-09-18T13:07:28.348Z,99445.63
2022-09-18T13:10:16.217Z,99442.28
2022-09-18T13:13:11.927Z,99448.41
2022-09-18T13:15:54.194Z,99443.81
2022-09-18T13:18:32.450Z,99452.34
2022-09-18T13:21:00.592Z,99449.56
2022-09-18T13:23:31.160Z,99449.00
2022-09-18T13:25:59.177Z,99442.84
2022-09-18T13:28:27.766Z,99443.69
2022-09-18T13:31:32.440Z,99455.84
2022-09-18T13:34:14.319Z,99456.56
2022-09-18T13:36:43.992Z,99447.78
2022-09-18T13:39:37.629Z,99448.75
2022-09-18T13:42:12.608Z,99457.28
2022-09-18T13:44:39.069Z,99455.75
2022-09-18T13:47:13.040Z,99444.44
2022-09-18T13:49:51.108Z,99445.69
2022-09-18T13:52:33.958Z,99438.56
2022-09-18T13:55:12.499Z,99438.25
2022-09-18T13:57:43.535Z,99445.56
2022-09-18T14:00:19.035Z,99452.38
2022-09-18T14:03:08.832Z,99446.00
2022-09-18T14:05:42.586Z,99442.09
2022-09-18T14:08:24.248Z,99438.03
2022-09-18T14:11:14.965Z,99436.03
2022-09-18T14:13:55.302Z,99434.00
2022-09-18T14:16:23.737Z,99431.50
2022-09-18T14:18:50.159Z,99428.03
2022-09-18T14:21:44.159Z,99427.16
2022-09-18T14:24:25.154Z,99415.56
2022-09-18T14:26:57.212Z,99422.00
2022-09-18T14:29:27.915Z,99422.69
2022-09-18T14:31:57.690Z,99417.94
2022-09-18T14:34:37.930Z,99417.63
2022-09-18T14:37:32.856Z,99416.97
2022-09-18T14:39:59.736Z,99414.44
2022-09-18T14:42:33.816Z,99419.09
2022-09-18T14:45:12.386Z,99410.81
2022-09-18T14:47:44.349Z,99404.16
2022-09-18T14:50:31.763Z,99406.91
2022-09-18T14:53:01.219Z,99403.28
2022-09-18T14:55:41.912Z,99393.22
2022-09-18T14:58:14.677Z,99383.75
2022-09-18T15:00:41.612Z,99382.94
2022-09-18T15:03:18.484Z,99389.91
2022-09-18T15:05:52.224Z,99384.88
2022-09-18T15:08:26.482Z,99389.47
2022-09-18T15:10:53.336Z,99383.19
2022-09-18T15:13:21.731Z,99383.75
2022-09-18T15:15:58.321Z,99393.81
2022-09-18T15:18:27.529Z,99384.88
2022-09-18T15:20:56.946Z,99378.72
2022-09-18T15:23:29.021Z,99387.66
2022-09-18T15:25:59.616Z,99386.28
2022-09-18T15:28:29.544Z,99384.19
2022-09-18T15:31:00.863Z,99376.50
2022-09-18T15:33:27.811Z,99386.28
2022-09-18T15:35:55.746Z,99394.94
2022-09-18T15:38:39.368Z,99385.44
2022-09-18T15:41:29.364Z,99385.72
2022-09-18T15:43:55.755Z,99381.81
2022-09-18T15:46:26.887Z,99393.53
2022-09-18T15:48:56.168Z,99390.78
2022-09-18T15:51:30.122Z,99385.47
2022-09-18T15:54:16.696Z,99375.28
2022-09-18T15:56:58.747Z,99373.63
2022-09-18T15:59:30.903Z,99381.28
2022-09-18T16:01:59.160Z,99371.34
2022-09-18T16:04:33.391Z,99373.34
2022-09-18T16:07:06.536Z,99361.31
2022-09-18T16:09:36.787Z,99377.06
2022-09-18T16:12:23.132Z,99373.19
2022-09-18T16:15:18.684Z,99388.81
2022-09-18T16:17:44.978Z,99387.78
2022-09-18T16:20:34.366Z,99388.22
2022-09-18T16:23:24.469Z,99384.75
2022-09-18T16:26:10.793Z,99385.13
2022-09-18T16:28:58.736Z,99391.00
2022-09-18T16:31:28.926Z,99385.13
2022-09-18T16:33:57.222Z,99378.19
2022-09-18T16:36:25.603Z,99379.44
2022-09-18T16:38:52.037Z,99382.91
2022-09-18T16:41:18.391Z,99378.31
2022-09-18T16:43:44.746Z,99374.13
2022-09-18T16:46:12.743Z,99369.66
2022-09-18T16:48:39.999Z,99368.13
2022-09-18T16:51:06.349Z,99370.63
2022-09-18T16:53:35.035Z,99376.22
2022-09-18T16:56:02.984Z,99384.84
2022-09-18T16:58:29.972Z,99377.88
2022-09-18T17:00:57.301Z,99368.41
2022-09-18T17:03:25.919Z,99375.22
2022-09-18T17:05:52.287Z,99365.88
2022-09-18T17:08:18.646Z,99368.25
2022-09-18T17:10:45.407Z,99363.78
2022-09-18T17:13:12.659Z,99359.06
2022-09-18T17:15:39.059Z,99354.44
2022-09-18T17:18:05.556Z,99347.47
2022-09-18T17:20:33.028Z,99351.78
2022-09-18T17:22:59.490Z,99354.75
2022-09-18T17:25:25.958Z,99344.94
2022-09-18T17:27:52.721Z,99349.28
2022-09-18T17:30:20.164Z,99351.09
2022-09-18T17:32:48.347Z,99356.13
2022-09-18T17:35:16.129Z,99352.22
2022-09-18T17:37:43.711Z,99353.34
2022-09-18T17:40:10.814Z,99358.63
2022-09-18T17:42:38.131Z,99359.47
2022-09-18T17:45:05.697Z,99351.38
2022-09-18T17:47:32.068Z,99350.69
2022-09-18T17:49:58.478Z,99347.72
2022-09-18T17:52:24.856Z,99347.59
2022-09-18T17:54:51.306Z,99351.38
2022-09-18T17:57:17.619Z,99356.13
2022-09-18T17:59:44.452Z,99343.56
2022-09-18T18:02:12.648Z,99356.38
2022-09-18T18:04:39.058Z,99362.34
2022-09-18T18:07:06.158Z,99404.16
2022-09-18T18:09:35.405Z,99407.34
2022-09-18T18:12:02.000Z,99413.13
2022-09-18T18:14:29.018Z,99414.66
2022-09-18T18:16:55.344Z,99419.91
2022-09-18T18:19:21.819Z,99422.59
2022-09-18T18:21:48.208Z,99419.91
2022-09-18T18:24:17.102Z,99425.59
2022-09-18T18:26:44.547Z,99428.34
2022-09-18T18:29:18.028Z,99428.34
2022-09-18T18:31:45.167Z,99438.41
2022-09-18T18:34:12.464Z,99435.22
2022-09-18T18:36:41.302Z,99438.16
2022-09-18T18:39:11.908Z,99437.19
2022-09-18T18:41:39.474Z,99437.56
2022-09-18T18:44:06.302Z,99434.91
2022-09-18T18:46:36.106Z,99446.88
2022-09-18T18:49:08.978Z,99448.22
2022-09-18T18:51:44.499Z,99457.91
2022-09-18T18:54:11.604Z,99466.03
2022-09-18T18:56:38.828Z,99465.78
2022-09-18T18:59:08.722Z,99464.03
2022-09-18T19:01:35.541Z,99472.63
2022-09-18T19:04:06.466Z,99469.47
2022-09-18T19:06:34.323Z,99481.41
2022-09-18T19:09:02.666Z,99484.53
2022-09-18T19:11:31.697Z,99480.78
2022-09-18T19:14:00.034Z,99486.00
2022-09-18T19:16:29.878Z,99492.81
2022-09-18T19:19:00.527Z,99496.78
2022-09-18T19:21:28.294Z,99493.28
2022-09-18T19:23:56.835Z,99496.78
2022-09-18T19:26:24.819Z,99505.28
2022-09-18T19:28:54.129Z,99503.50
2022-09-18T19:31:21.637Z,99500.94
2022-09-18T19:33:50.866Z,99505.59
2022-09-18T19:36:17.538Z,99513.41
2022-09-18T19:38:43.904Z,99517.44
2022-09-18T19:41:20.408Z,99526.25
2022-09-18T19:43:46.902Z,99520.19
2022-09-18T19:46:22.907Z,99521.59
2022-09-18T19:48:49.895Z,99531.59
2022-09-18T19:51:16.269Z,99539.19
2022-09-18T19:53:42.760Z,99530.19
2022-09-18T19:56:27.473Z,99535.81
2022-09-18T19:58:57.723Z,99531.78
2022-09-18T20:01:24.056Z,99542.22
2022-09-18T20:03:53.880Z,99528.38
2022-09-18T20:06:20.374Z,99532.50
2022-09-18T20:08:46.836Z,99526.56
2022-09-18T20:11:13.176Z,99521.56
2022-09-18T20:13:39.633Z,99503.16
2022-09-18T20:16:08.447Z,99511.22
2022-09-18T20:18:34.886Z,99488.97
2022-09-18T20:21:09.038Z,99468.69
2022-09-18T20:23:36.277Z,99497.53
2022-09-18T20:26:15.258Z,99505.78
2022-09-18T20:28:42.284Z,99497.59
2022-09-18T20:31:15.068Z,99490.31
2022-09-18T20:33:41.830Z,99480.63
2022-09-18T20:36:11.314Z,99467.88
2022-09-18T20:38:40.052Z,99470.38
2022-09-18T20:41:13.364Z,99479.41
2022-09-18T20:43:41.773Z,99472.34
2022-09-18T20:46:14.019Z,99472.41
2022-09-18T20:48:41.279Z,99476.97
2022-09-18T20:51:10.684Z,99485.78
2022-09-18T20:53:41.342Z,99479.53
2022-09-18T20:56:09.814Z,99482.31
2022-09-18T20:58:39.044Z,99491.44
2022-09-18T21:01:17.983Z,99510.78
2022-09-18T21:03:45.930Z,99519.06
2022-09-18T21:06:23.352Z,99525.47
2022-09-18T21:08:53.224Z,99526.63
2022-09-18T21:11:24.313Z,99525.38
2022-09-18T21:13:56.850Z,99527.28
2022-09-18T21:16:25.163Z,99531.88
2022-09-18T21:18:57.673Z,99544.13
2022-09-18T21:21:25.792Z,99532.38
2022-09-18T21:24:01.152Z,99524.31
2022-09-18T21:26:42.850Z,99521.34
2022-09-18T21:29:18.666Z,99504.25
2022-09-18T21:31:46.974Z,99510.28
2022-09-18T21:34:26.530Z,99514.84
2022-09-18T21:36:57.557Z,99517.63
2022-09-18T21:39:24.627Z,99524.59
2022-09-18T21:41:53.147Z,99525.28
2022-09-18T21:44:24.540Z,99529.38
2022-09-18T21:46:51.923Z,99523.03
2022-09-18T21:49:19.089Z,99526.72
2022-09-18T21:51:46.756Z,99537.66
2022-09-18T21:54:17.516Z,99532.00
2022-09-18T21:56:51.708Z,99527.81
2022-09-18T21:59:22.140Z,99529.97
2022-09-18T22:01:55.102Z,99530.22
2022-09-18T22:04:27.600Z,99530.47
2022-09-18T22:06:56.970Z,99532.38
2022-09-18T22:09:28.788Z,99551.09
2022-09-18T22:11:56.256Z,99544.63
2022-09-18T22:14:29.376Z,99531.19
2022-09-18T22:16:56.316Z,99529.72
2022-09-18T22:19:22.941Z,99533.09
2022-09-18T22:21:50.786Z,99533.47
2022-09-18T22:24:20.272Z,99534.06
2022-09-18T22:26:49.464Z,99521.31
2022-09-18T22:29:23.773Z,99532.59
2022-09-18T22:31:51.248Z,99529.72
2022-09-18T22:34:21.075Z,99526.38
2022-09-18T22:36:48.062Z,99522.03
2022-09-18T22:39:16.680Z,99523.00
2022-09-18T22:41:43.912Z,99540.16
2022-09-18T22:44:10.924Z,99525.28
2022-09-18T22:46:39.294Z,99537.16
2022-09-18T22:49:08.633Z,99535.97
2022-09-18T22:51:35.460Z,99537.47
2022-09-18T22:54:07.496Z,99544.84
2022-09-18T22:56:39.457Z,99546.75
2022-09-18T22:59:07.075Z,99546.91
2022-09-18T23:01:46.201Z,99545.78
2022-09-18T23:04:13.356Z,99546.38
2022-09-18T23:06:40.280Z,99548.94
2022-09-18T23:09:07.442Z,99545.34
2022-09-18T23:11:34.755Z,99561.56
2022-09-18T23:14:04.316Z,99538.25
2022-09-18T23:16:33.065Z,99547.25
2022-09-18T23:19:05.455Z,99541.63
2022-09-18T23:21:36.120Z,99536.69
2022-09-18T23:24:08.871Z,99546.16
2022-09-18T23:26:40.751Z,99543.44
2022-09-18T23:29:10.644Z,99553.72
2022-09-18T23:31:41.075Z,99552.53
2022-09-18T23:34:12.390Z,99551.81
2022-09-18T23:36:39.978Z,99557.72
2022-09-18T23:39:12.419Z,99557.00
2022-09-18T23:41:38.969Z,99567.91
2022-09-18T23:44:08.204Z,99570.66
2022-09-18T23:46:35.150Z,99570.19
2022-09-18T23:49:01.735Z,99569.94
2022-09-18T23:51:33.560Z,99573.19
2022-09-18T23:54:01.587Z,99575.72
2022-09-18T23:56:31.113Z,99573.91
2022-09-18T23:59:00.852Z,99573.31
